Terminal Aerodrome Forecast
Issued by NWS

Current Version | Previous Version | Text Only | Print | Product List | Glossary On
Versions: 1 2 3 4 5 6 7 8 9 10 11 12 13 14 15 16 17 18 19 20 21 22 23 24 25 26
000
FTUS41 KOKX 200525
TAFSWF
TAF
KSWF 200525Z 2006/2112 26008KT P6SM FEW250
     FM200900 29007KT P6SM FEW250
     FM201400 32012KT P6SM SKC
     FM210000 32005KT P6SM SKC
      AMD NOT SKED=

USA.gov is the U.S. government's official web portal to all federal, state and local government web resources and services.